Adelma Beach, Washington
Current Conditions -  °F | °C
As of 10:56 AM on Thursday 27 Nov 2014 (Local Time) from KNUW Reporting Station
Broken Clouds Broken Clouds  
Wind Chill: 60°   Ceiling: 8000
Heat Index: 60°   Visibility: 10mi
Dew Point: 51°   Wind: 16mph
Humidity: 72%   Direction: 140°SE
Pressure: 29.76"   Gusts: 23mph
Location:  48.026°N, 122.859°W
Report Text: KNUW 271856Z AUTO 14014G20KT 10SM FEW046 BKN080 16/11 A2976 RMK AO2 SLP080 T01560106 $
Loading
Personal Weather Stations






























Interactive Weather Map New forecast layout! Learn more

10-Day Weather Forecast

Advertisements
Track Severe Weather on mobile